• Join FlightAware (Why Join?)
  • Login
  • US Flag 
09:10AM EDT


 

Airport Tracker/Info


-or-


 

Live Flight TrackerFlight Track Log ✈ PDT4147 ✈ 02-May-2013 ✈ KROA - KCLT

Flight Track Log - Related Links

Times and Time Zones

All times are in EDT time to prevent confusion due to time zone crossing. See the PDT4147 flight status page for this flight to view local times or setup timezone preferences in your user account.

Time Position Orientation Groundspeed Altitude Reporting Facility
EDT Latitude Longitude Course Direction KTS MPH feet Rate Location/Type
04:35PM 37.2154 -80.0500 180° South  Level FlightAware Approximate
04:36PM 37.1485 -80.0500 180° South  Level FlightAware Approximate
04:37PM 37.0815 -80.0500 180° South  Level FlightAware Approximate
04:38PM 37.0171 -80.0324 177° South  Level FlightAware Approximate
04:39PM 36.9530 -80.0286 177° South  Level FlightAware Approximate
04:40PM 36.8889 -80.0248 177° South  Level FlightAware Approximate
04:41PM 36.8247 -80.0210 177° South  Level FlightAware Approximate
04:42PM 36.7606 -80.0173 177° South  Level FlightAware Approximate
04:43PM 36.6964 -80.0154 177° South  Level FlightAware Approximate
04:44PM 36.6323 -80.0114 177° South  Level FlightAware Approximate
04:45PM 36.5682 -80.0074 177° South  Level FlightAware Approximate
04:46PM 36.5041 -80.0034 177° South  Level FlightAware Approximate
04:47PM 36.4400 -79.9987 174° South  Level FlightAware Approximate
04:48PM 36.3761 -79.9908 174° South  Level FlightAware Approximate
04:49PM 36.3122 -79.9831 177° South  Level FlightAware Approximate
04:50PM 36.2481 -79.9793 177° South  Level FlightAware Approximate
04:51PM 36.1839 -79.9755 177° South  Level FlightAware Approximate
04:52PM 36.1198 -79.9717 177° South  Level FlightAware Approximate
04:53PM 36.0557 -79.9680 177° South  Level FlightAware Approximate
04:54PM 36.0063 -80.0061 230° Southwest  Level FlightAware Approximate
04:55PM 35.9648 -80.0666 230° Southwest  Level FlightAware Approximate
04:55PM 35.9694 -80.4211 227° Southwest 262 302 9,000  Level Atlanta Center
04:56PM 35.9163 -80.1371 230° Southwest  Level FlightAware Approximate
04:56PM 35.9119 -80.4544 205° Southwest 256 295 9,000  Level Atlanta Center
04:57PM 35.8678 -80.2075 230° Southwest  Level FlightAware Approximate
04:57PM 35.8464 -80.4906 204° Southwest 252 290 9,000  Level Atlanta Center
04:58PM 35.8168 -80.2749 225° Southwest  Level FlightAware Approximate
04:58PM 35.7725 -80.5347 206° Southwest 255 293 9,000  Level Atlanta Center
04:59PM 35.7649 -80.3413 227° Southwest  Level FlightAware Approximate
04:59PM 35.7047 -80.5683 202° Southwest 257 296 9,000  Level Atlanta Center
05:00PM 35.7141 -80.4091 227° Southwest  Level FlightAware Approximate
05:00PM 35.6575 -80.5961 206° Southwest 256 295 9,000  Level Atlanta Center
05:01PM 35.5856 -80.6372 205° Southwest 255 293 9,000  Level Atlanta Center
05:02PM 35.5181 -80.6808 208° Southwest 258 297 9,000  Level Atlanta Center
05:03PM 35.4631 -80.7292 216° Southwest 260 299 9,000  Level Atlanta Center
05:04PM 35.4058 -80.7772 214° Southwest 260 299 9,000  Level Atlanta Center
05:05PM 35.3406 -80.8308 214° Southwest 261 300 9,000  Level Atlanta Center
05:06PM 35.2714 -80.8283 178° South 249 287 9,000 -240 Level Atlanta Center
05:07PM 35.2006 -80.8236 177° South 253 291 8,600 -660 Descending Atlanta Center
05:08PM 35.1272 -80.8186 177° South 262 302 7,700 -1,020 Descending Atlanta Center
05:09PM 35.0561 -80.8089 174° South 253 291 6,600 -1,140 Descending Atlanta Center
05:10PM 34.9914 -80.8036 176° South 229 264 5,400 -1,140 Descending Atlanta Center
05:11PM 34.9433 -80.8081 184° South 180 207 4,400 -780 Descending Atlanta Center
05:12PM 34.8911 -80.8050 177° South 177 204 4,000 -240 Descending Atlanta Center
05:13PM 34.8414 -80.8197 194° South 187 215 4,000  Level Atlanta Center
05:14PM 34.8472 -80.8828 276° West 209 241 4,000  Level Atlanta Center
05:15PM 34.8961 -80.9111 335° Northwest 194 223 4,000  Level Atlanta Center
05:16PM 34.9464 -80.9194 352° North 180 207 4,000  Level Atlanta Center
05:17PM 34.9922 -80.9178 North 177 204 4,000 -120 Level Atlanta Center
05:18PM 35.0444 -80.9233 355° North 183 211 3,800 -240 Descending Atlanta Center